createdAt,value
2018-04-12T00:00:18.642Z,990.2
2018-04-12T00:01:28.721Z,990.21
2018-04-12T00:02:38.796Z,990.19
2018-04-12T00:03:48.361Z,990.19
2018-04-12T00:04:58.172Z,990.15
2018-04-12T00:06:07.740Z,990.15
2018-04-12T00:07:17.826Z,990.16
2018-04-12T00:08:27.902Z,990.16
2018-04-12T00:09:37.721Z,990.12
2018-04-12T00:10:47.551Z,990.16
2018-04-12T00:11:57.375Z,990.12
2018-04-12T00:13:07.247Z,990.16
2018-04-12T00:14:16.807Z,990.16
2018-04-12T00:15:26.889Z,990.13
2018-04-12T00:16:36.975Z,990.14
2018-04-12T00:17:46.799Z,990.11
2018-04-12T00:18:56.878Z,990.14
2018-04-12T00:20:06.710Z,990.15
2018-04-12T00:21:16.770Z,990.11
2018-04-12T00:22:26.845Z,990.13
2018-04-12T00:23:36.900Z,990.13
2018-04-12T00:24:46.185Z,990.06
2018-04-12T00:25:56.263Z,990.08
2018-04-12T00:27:06.343Z,990.05
2018-04-12T00:28:16.419Z,990.08
2018-04-12T00:29:26.510Z,990.05
2018-04-12T00:30:36.644Z,990.06
2018-04-12T00:31:46.729Z,990.05
2018-04-12T00:32:56.824Z,990.04
2018-04-12T00:34:06.897Z,990.07
2018-04-12T00:35:17.008Z,990.03
2018-04-12T00:36:27.138Z,990.03
2018-04-12T00:37:37.215Z,990.04
2018-04-12T00:38:47.061Z,990.01
2018-04-12T00:39:57.414Z,989.99
2018-04-12T00:41:07.477Z,989.95
2018-04-12T00:42:17.303Z,989.94
2018-04-12T00:43:27.370Z,989.96
2018-04-12T00:44:37.459Z,989.99
2018-04-12T00:45:47.534Z,990
2018-04-12T00:46:57.584Z,990
2018-04-12T00:48:07.661Z,989.89
2018-04-12T00:49:17.732Z,989.95
2018-04-12T00:50:27.905Z,989.94
2018-04-12T00:51:37.471Z,989.96
2018-04-12T00:52:47.549Z,989.95
2018-04-12T00:53:57.620Z,989.91
2018-04-12T00:55:07.443Z,989.93
2018-04-12T00:56:17.536Z,989.95
2018-04-12T00:57:27.372Z,989.97
2018-04-12T00:58:37.210Z,989.95
2018-04-12T00:59:47.285Z,989.96
2018-04-12T01:00:57.377Z,989.93
2018-04-12T01:02:07.204Z,989.92
2018-04-12T01:03:17.295Z,989.89
2018-04-12T01:04:27.361Z,989.93
2018-04-12T01:05:37.456Z,989.93
2018-04-12T01:06:47.562Z,989.91
2018-04-12T01:07:57.643Z,989.92
2018-04-12T01:09:07.727Z,989.94
2018-04-12T01:10:17.819Z,989.95
2018-04-12T01:11:27.893Z,989.93
2018-04-12T01:12:37.972Z,989.9
2018-04-12T01:13:48.097Z,989.93
2018-04-12T01:14:58.161Z,989.91
2018-04-12T01:16:08.254Z,989.92
2018-04-12T01:17:18.328Z,989.93
2018-04-12T01:18:28.161Z,989.94
2018-04-12T01:19:37.978Z,989.96
2018-04-12T01:20:48.059Z,989.94
2018-04-12T01:21:57.864Z,989.92
2018-04-12T01:23:08.011Z,989.93
2018-04-12T01:24:17.830Z,989.91
2018-04-12T01:25:27.917Z,989.97
2018-04-12T01:26:38.002Z,989.98
2018-04-12T01:27:48.072Z,989.97
2018-04-12T01:28:58.151Z,989.96
2018-04-12T01:30:08.242Z,989.94
2018-04-12T01:31:18.330Z,989.95
2018-04-12T01:32:28.410Z,989.91
2018-04-12T01:33:38.232Z,989.94
2018-04-12T01:34:48.318Z,989.93
2018-04-12T01:35:58.377Z,989.96
2018-04-12T01:37:08.205Z,989.97
2018-04-12T01:38:18.287Z,989.95
2018-04-12T01:39:28.112Z,989.97
2018-04-12T01:40:38.208Z,989.96
2018-04-12T01:41:48.027Z,989.98
2018-04-12T01:42:57.831Z,989.97
2018-04-12T01:44:07.909Z,989.98
2018-04-12T01:45:17.995Z,990
2018-04-12T01:46:28.093Z,989.98
2018-04-12T01:47:38.189Z,990
2018-04-12T01:48:48.272Z,990.01
2018-04-12T01:49:58.349Z,989.99
2018-04-12T01:51:08.408Z,989.99
2018-04-12T01:52:18.478Z,990
2018-04-12T01:53:28.551Z,990.02
2018-04-12T01:54:38.623Z,990.05
2018-04-12T01:55:48.711Z,990.06
2018-04-12T01:56:58.538Z,990.06
2018-04-12T01:58:08.654Z,990.04
2018-04-12T01:59:18.493Z,990.04
2018-04-12T02:00:28.567Z,990.05
2018-04-12T02:01:38.651Z,989.99
2018-04-12T02:02:48.736Z,990.07
2018-04-12T02:03:58.834Z,990.03
2018-04-12T02:05:08.653Z,990.06
2018-04-12T02:06:18.461Z,990.04
2018-04-12T02:07:28.541Z,990
2018-04-12T02:08:38.087Z,989.98
2018-04-12T02:09:48.171Z,989.99
2018-04-12T02:10:58.012Z,989.97
2018-04-12T02:12:08.081Z,990
2018-04-12T02:13:17.894Z,990.01
2018-04-12T02:14:27.700Z,989.96
2018-04-12T02:15:37.775Z,989.96
2018-04-12T02:16:47.843Z,989.94
2018-04-12T02:17:57.388Z,989.87
2018-04-12T02:19:07.463Z,989.87
2018-04-12T02:20:17.542Z,989.88
2018-04-12T02:21:27.630Z,989.87
2018-04-12T02:22:37.708Z,989.83
2018-04-12T02:23:47.898Z,989.87
2018-04-12T02:24:57.977Z,989.83
2018-04-12T02:26:08.066Z,989.83
2018-04-12T02:27:18.151Z,989.77
2018-04-12T02:28:28.244Z,989.77
2018-04-12T02:29:38.332Z,989.72
2018-04-12T02:30:48.417Z,989.72
2018-04-12T02:31:58.235Z,989.72
2018-04-12T02:33:08.361Z,989.69
2018-04-12T02:34:18.191Z,989.64
2018-04-12T02:35:28.288Z,989.63
2018-04-12T02:36:38.376Z,989.61
2018-04-12T02:37:48.458Z,989.6
2018-04-12T02:38:58.538Z,989.59
2018-04-12T02:40:08.612Z,989.61
2018-04-12T02:41:18.700Z,989.63
2018-04-12T02:42:28.513Z,989.61
2018-04-12T02:43:38.607Z,989.61
2018-04-12T02:44:48.706Z,989.63
2018-04-12T02:45:58.798Z,989.63
2018-04-12T02:47:08.876Z,989.62
2018-04-12T02:48:18.956Z,989.63
2018-04-12T02:49:29.070Z,989.63
2018-04-12T02:50:39.198Z,989.64
2018-04-12T02:51:49.259Z,989.64
2018-04-12T02:52:58.824Z,989.63
2018-04-12T02:54:08.912Z,989.6
2018-04-12T02:55:19.001Z,989.62
2018-04-12T02:56:29.135Z,989.63
2018-04-12T02:57:39.207Z,989.62
2018-04-12T02:58:49.047Z,989.62
2018-04-12T02:59:58.861Z,989.64
2018-04-12T03:01:08.957Z,989.61
2018-04-12T03:02:19.033Z,989.59
2018-04-12T03:33:53.054Z,989.66
2018-04-12T03:35:03.118Z,989.67
2018-04-12T03:36:13.185Z,989.68
2018-04-12T03:37:22.713Z,989.68
2018-04-12T03:38:32.785Z,989.68
2018-04-12T03:39:42.875Z,989.65
2018-04-12T03:40:52.948Z,989.64
2018-04-12T03:42:02.764Z,989.62
2018-04-12T03:43:12.920Z,989.6
2018-04-12T03:44:23.005Z,989.58
2018-04-12T03:45:33.087Z,989.57
2018-04-12T03:46:43.181Z,989.57
2018-04-12T03:47:53.248Z,989.63
2018-04-12T03:49:03.367Z,989.58
2018-04-12T03:50:13.815Z,989.59
2018-04-12T03:51:24.113Z,989.6
2018-04-12T03:52:34.207Z,989.58
2018-04-12T03:53:44.016Z,989.59
2018-04-12T03:54:54.106Z,989.58
2018-04-12T03:56:04.177Z,989.58
2018-04-12T03:57:13.786Z,989.57
2018-04-12T03:58:23.895Z,989.55
2018-04-12T03:59:33.711Z,989.54
2018-04-12T04:00:43.520Z,989.51
2018-04-12T04:01:53.350Z,989.52
2018-04-12T04:03:03.177Z,989.55
2018-04-12T04:04:13.258Z,989.56
2018-04-12T04:05:23.058Z,989.53
2018-04-12T04:06:32.879Z,989.55
2018-04-12T04:07:42.952Z,989.55
2018-04-12T04:08:53.084Z,989.54
2018-04-12T04:10:03.162Z,989.56
2018-04-12T04:11:13.249Z,989.54
2018-04-12T04:12:23.327Z,989.53
2018-04-12T04:13:33.405Z,989.54
2018-04-12T04:14:43.507Z,989.5
2018-04-12T04:15:53.339Z,989.56
2018-04-12T04:17:03.129Z,989.49
2018-04-12T04:18:13.211Z,989.5
2018-04-12T04:19:23.040Z,989.46
2018-04-12T04:20:33.123Z,989.53
2018-04-12T04:21:42.953Z,989.47
2018-04-12T04:22:53.026Z,989.53
2018-04-12T04:24:03.107Z,989.52
2018-04-12T04:25:13.193Z,989.55
2018-04-12T04:26:23.266Z,989.55
2018-04-12T04:27:33.334Z,989.54
2018-04-12T04:28:43.160Z,989.56
2018-04-12T04:29:52.975Z,989.54
2018-04-12T04:31:02.827Z,989.56
2018-04-12T04:32:12.960Z,989.57
2018-04-12T04:33:22.769Z,989.57
2018-04-12T04:34:32.832Z,989.58
2018-04-12T04:35:42.921Z,989.6
2018-04-12T04:36:53.003Z,989.61
2018-04-12T04:38:03.085Z,989.63
2018-04-12T04:39:12.636Z,989.65
2018-04-12T04:40:22.460Z,989.63
2018-04-12T04:41:32.533Z,989.58
2018-04-12T04:42:42.629Z,989.63
2018-04-12T04:43:52.789Z,989.67
2018-04-12T04:45:02.593Z,989.66
2018-04-12T04:46:12.680Z,989.66
2018-04-12T04:47:22.765Z,989.67
2018-04-12T04:48:32.844Z,989.69
2018-04-12T04:49:42.923Z,989.72
2018-04-12T04:50:52.999Z,989.79
2018-04-12T04:52:03.077Z,989.85
2018-04-12T04:53:13.165Z,989.86
2018-04-12T04:54:23.285Z,989.94
2018-04-12T04:55:33.387Z,989.85
2018-04-12T04:56:43.486Z,989.8
2018-04-12T04:57:53.597Z,989.78
2018-04-12T04:59:03.441Z,989.77
2018-04-12T05:00:13.521Z,989.8
2018-04-12T05:01:23.621Z,989.82
2018-04-12T05:02:33.895Z,989.87
2018-04-12T05:03:43.971Z,989.88
2018-04-12T05:04:53.781Z,989.87
2018-04-12T05:06:03.893Z,989.87
2018-04-12T05:07:14.016Z,989.92
2018-04-12T05:08:24.148Z,989.93
2018-04-12T05:09:34.236Z,989.97
2018-04-12T05:10:44.315Z,989.97
2018-04-12T05:11:54.407Z,989.92
2018-04-12T05:13:04.493Z,989.94
2018-04-12T05:14:14.556Z,989.92
2018-04-12T05:15:24.388Z,989.94
2018-04-12T05:16:34.505Z,989.96
2018-04-12T05:17:44.333Z,990
2018-04-12T05:18:54.157Z,990.03
2018-04-12T05:20:04.224Z,990.13
2018-04-12T05:21:14.297Z,990.19
2018-04-12T05:22:24.139Z,990.2
2018-04-12T05:23:34.230Z,990.16
2018-04-12T05:24:44.106Z,990.16
2018-04-12T05:25:53.928Z,990.19
2018-04-12T05:27:03.492Z,990.15
2018-04-12T05:28:13.576Z,990.11
2018-04-12T05:29:23.686Z,990.12
2018-04-12T05:30:33.764Z,990.15
2018-04-12T05:31:43.861Z,990.16
2018-04-12T05:32:53.688Z,990.15
2018-04-12T05:34:03.794Z,990.14
2018-04-12T05:35:13.625Z,990.16
2018-04-12T05:36:23.438Z,990.18
2018-04-12T05:37:33.291Z,990.17
2018-04-12T05:38:43.368Z,990.21
2018-04-12T05:39:53.439Z,990.27
2018-04-12T05:41:03.251Z,990.22
2018-04-12T05:42:13.351Z,990.29
2018-04-12T05:43:23.431Z,990.23
2018-04-12T05:44:33.512Z,990.2
2018-04-12T05:45:43.610Z,990.23
2018-04-12T05:46:53.687Z,990.24
2018-04-12T05:48:03.289Z,990.2
2018-04-12T05:49:13.377Z,990.25
2018-04-12T05:50:23.481Z,990.21
2018-04-12T05:51:33.301Z,990.18
2018-04-12T05:52:43.385Z,990.18
2018-04-12T05:53:53.547Z,990.22
2018-04-12T05:55:03.629Z,990.2
2018-04-12T05:56:13.679Z,990.2
2018-04-12T05:57:23.755Z,990.18
2018-04-12T05:58:33.578Z,990.15
2018-04-12T05:59:43.664Z,990.12
2018-04-12T06:00:53.480Z,990.14
2018-04-12T06:02:03.584Z,990.13
2018-04-12T06:03:13.683Z,990.13
2018-04-12T06:04:23.501Z,990.12
2018-04-12T06:05:33.592Z,990.13
2018-04-12T06:06:43.681Z,990.09
2018-04-12T06:07:53.510Z,990.1
2018-04-12T06:09:03.320Z,990.1
2018-04-12T06:10:13.160Z,990.09
2018-04-12T06:11:22.969Z,990.08
2018-04-12T06:12:33.068Z,990.03
2018-04-12T06:13:43.032Z,990.04
2018-04-12T06:14:53.114Z,990.01
2018-04-12T06:16:03.213Z,989.99
2018-04-12T06:17:13.342Z,990.01
2018-04-12T06:18:23.164Z,989.96
2018-04-12T06:19:33.272Z,990
2018-04-12T06:20:43.112Z,990.04
2018-04-12T06:21:52.914Z,990.08
2018-04-12T06:23:03.022Z,990.09
2018-04-12T06:24:12.824Z,990.05
2018-04-12T06:25:22.636Z,990.07
2018-04-12T06:26:32.467Z,990.04
2018-04-12T06:27:42.594Z,990.03
2018-04-12T06:28:52.426Z,990.04
2018-04-12T06:30:02.510Z,989.97
2018-04-12T06:31:12.330Z,989.99
2018-04-12T06:32:22.420Z,989.97
2018-04-12T06:33:32.015Z,989.97
2018-04-12T06:34:42.109Z,990.02
2018-04-12T06:35:52.189Z,990.02
2018-04-12T06:37:02.266Z,990.03
2018-04-12T06:38:12.073Z,990.03
2018-04-12T06:39:22.155Z,990.09
2018-04-12T06:40:32.247Z,990.06
2018-04-12T06:41:42.388Z,990.12
2018-04-12T06:42:52.231Z,990.09
2018-04-12T06:44:01.780Z,990.14
2018-04-12T06:45:11.865Z,990.15
2018-04-12T06:46:21.950Z,990.15
2018-04-12T06:47:31.756Z,990.13
2018-04-12T06:48:41.897Z,990.11
2018-04-12T06:49:51.955Z,990.1
2018-04-12T06:51:02.046Z,990.13
2018-04-12T06:52:12.128Z,990.1
2018-04-12T06:53:22.275Z,990.11
2018-04-12T06:54:32.375Z,990.06
2018-04-12T06:55:42.449Z,990.07
2018-04-12T06:56:52.539Z,990.14
2018-04-12T06:58:02.627Z,990.14
2018-04-12T06:59:12.730Z,990.16
2018-04-12T07:00:22.804Z,990.18
2018-04-12T07:01:32.878Z,990.19
2018-04-12T07:02:42.938Z,990.18
2018-04-12T07:03:53.033Z,990.19
2018-04-12T07:05:03.127Z,990.17
2018-04-12T07:06:12.943Z,990.14
2018-04-12T07:07:22.809Z,990.16
2018-04-12T07:08:32.882Z,990.07
2018-04-12T07:09:42.968Z,990.06
2018-04-12T07:10:52.858Z,990.03
2018-04-12T07:12:02.937Z,990.02
2018-04-12T07:13:13.020Z,989.96
2018-04-12T07:14:22.846Z,989.94
2018-04-12T07:15:32.946Z,989.96
2018-04-12T07:16:43.044Z,989.95
2018-04-12T07:17:52.863Z,990.02
2018-04-12T07:19:02.973Z,989.97
2018-04-12T07:20:12.844Z,989.97
2018-04-12T07:21:22.656Z,989.89
2018-04-12T07:22:32.520Z,989.93
2018-04-12T07:23:42.635Z,989.92
2018-04-12T07:24:52.469Z,989.89
2018-04-12T07:26:02.595Z,989.89
2018-04-12T07:27:12.760Z,989.91
2018-04-12T07:28:22.898Z,989.89
2018-04-12T07:29:32.975Z,989.88
2018-04-12T07:30:42.784Z,989.88
2018-04-12T07:31:52.623Z,989.89
2018-04-12T07:33:02.439Z,989.87
2018-04-12T07:34:12.265Z,989.77
2018-04-12T07:35:22.373Z,989.72
2018-04-12T07:36:32.482Z,989.73
2018-04-12T07:37:42.579Z,989.69
2018-04-12T07:38:52.681Z,989.71
2018-04-12T07:40:02.771Z,989.72
2018-04-12T07:41:12.948Z,989.69
2018-04-12T07:42:22.773Z,989.72
2018-04-12T07:43:32.910Z,989.72
2018-04-12T07:44:43.197Z,989.69
2018-04-12T07:45:53.334Z,989.66
2018-04-12T07:47:03.432Z,989.64
2018-04-12T07:48:13.582Z,989.65
2018-04-12T07:49:25.067Z,989.66
2018-04-12T07:50:37.296Z,989.64
2018-04-12T07:51:47.449Z,989.61
2018-04-12T07:52:57.559Z,989.62
2018-04-12T07:54:07.639Z,989.63
2018-04-12T07:55:17.713Z,989.66
2018-04-12T07:56:27.866Z,989.65
2018-04-12T07:57:37.987Z,989.64
2018-04-12T07:58:47.810Z,989.67
2018-04-12T07:59:57.890Z,989.63
2018-04-12T08:01:07.981Z,989.59
2018-04-12T08:02:18.051Z,989.65
2018-04-12T08:03:28.156Z,989.6
2018-04-12T08:04:38.252Z,989.59
2018-04-12T08:05:48.335Z,989.62
2018-04-12T08:06:57.898Z,989.62
2018-04-12T08:08:07.723Z,989.63
2018-04-12T08:09:17.823Z,989.65
2018-04-12T08:10:27.906Z,989.64
2018-04-12T08:11:37.994Z,989.66
2018-04-12T08:12:48.154Z,989.62
2018-04-12T08:13:58.222Z,989.61
2018-04-12T08:15:08.352Z,989.62
2018-04-12T08:16:17.976Z,989.59
2018-04-12T08:17:28.140Z,989.56
2018-04-12T08:18:38.229Z,989.59
2018-04-12T08:19:48.327Z,989.57
2018-04-12T08:20:58.468Z,989.57
2018-04-12T08:22:08.570Z,989.62
2018-04-12T08:23:18.663Z,989.55
2018-04-12T08:24:28.485Z,989.62
2018-04-12T08:25:38.030Z,989.67
2018-04-12T08:26:47.857Z,989.67
2018-04-12T08:27:57.929Z,989.71
2018-04-12T08:29:07.770Z,989.67
2018-04-12T08:30:17.850Z,989.75
2018-04-12T08:31:27.723Z,989.7
2018-04-12T08:32:37.799Z,989.76
2018-04-12T08:33:47.931Z,989.76
2018-04-12T08:34:58.016Z,989.8
2018-04-12T08:36:08.090Z,989.78
2018-04-12T08:37:17.916Z,989.74
2018-04-12T08:38:27.748Z,989.74
2018-04-12T08:39:37.826Z,989.71
2018-04-12T08:40:47.915Z,989.71
2018-04-12T08:41:58.015Z,989.71
2018-04-12T08:43:08.086Z,989.8
2018-04-12T08:44:18.173Z,989.79
2018-04-12T08:45:28.255Z,989.8
2018-04-12T08:46:37.827Z,989.82
2018-04-12T08:47:47.925Z,989.77
2018-04-12T08:48:58.003Z,989.84
2018-04-12T08:50:08.083Z,989.82
2018-04-12T08:51:17.898Z,989.83
2018-04-12T08:52:27.726Z,989.8
2018-04-12T08:53:37.551Z,989.82
2018-04-12T08:54:47.373Z,989.85
2018-04-12T08:55:57.472Z,989.8
2018-04-12T08:57:07.604Z,989.85
2018-04-12T08:58:17.749Z,989.78
2018-04-12T08:59:27.839Z,989.8
2018-04-12T09:00:37.930Z,989.72
2018-04-12T09:01:48.005Z,989.72
2018-04-12T09:02:58.145Z,989.67
2018-04-12T09:04:08.252Z,989.68
2018-04-12T09:05:18.360Z,989.65
2018-04-12T09:06:28.526Z,989.64
2018-04-12T09:07:38.670Z,989.7
2018-04-12T09:08:48.775Z,989.66
2018-04-12T09:10:00.727Z,989.67
2018-04-12T09:11:11.709Z,989.69
2018-04-12T09:12:22.987Z,989.66
2018-04-12T09:13:33.179Z,989.68
2018-04-12T09:14:44.642Z,989.64
2018-04-12T09:15:56.171Z,989.7
2018-04-12T09:17:07.180Z,989.66
2018-04-12T09:18:18.996Z,989.65
2018-04-12T09:19:30.090Z,989.6
2018-04-12T09:20:40.218Z,989.65
2018-04-12T09:21:50.321Z,989.67
2018-04-12T09:23:00.414Z,989.71
2018-04-12T09:24:10.599Z,989.63
2018-04-12T09:25:20.712Z,989.7
2018-04-12T09:26:30.548Z,989.67
2018-04-12T09:27:40.711Z,989.65
2018-04-12T09:28:50.645Z,989.69
2018-04-12T09:30:00.791Z,989.67
2018-04-12T09:31:10.933Z,989.63
2018-04-12T09:32:21.039Z,989.63
2018-04-12T09:33:30.901Z,989.57
2018-04-12T09:34:40.736Z,989.53
2018-04-12T09:35:51.033Z,989.5
2018-04-12T09:37:01.358Z,989.49
2018-04-12T09:38:11.248Z,989.48
2018-04-12T09:39:21.080Z,989.44
2018-04-12T09:40:31.442Z,989.44
2018-04-12T09:41:41.524Z,989.47
2018-04-12T09:42:51.367Z,989.4
2018-04-12T09:44:01.205Z,989.39
2018-04-12T09:45:11.357Z,989.36
2018-04-12T09:46:21.547Z,989.41
2018-04-12T09:47:31.744Z,989.39
2018-04-12T09:48:41.309Z,989.41
2018-04-12T09:49:51.134Z,989.47
2018-04-12T09:51:01.248Z,989.43
2018-04-12T09:52:11.091Z,989.4
2018-04-12T09:53:20.956Z,989.47
2018-04-12T09:54:31.075Z,989.46
2018-04-12T09:55:40.906Z,989.43
2018-04-12T09:56:51.026Z,989.38
2018-04-12T09:58:00.892Z,989.34
2018-04-12T09:59:10.987Z,989.41
2018-04-12T10:00:21.089Z,989.42
2018-04-12T10:01:30.951Z,989.38
2018-04-12T10:02:41.661Z,989.42
2018-04-12T10:03:51.837Z,989.43
2018-04-12T10:05:01.934Z,989.42
2018-04-12T10:06:12.128Z,989.39
2018-04-12T10:07:22.231Z,989.38
2018-04-12T10:08:31.805Z,989.34
2018-04-12T10:09:41.644Z,989.34
2018-04-12T10:10:51.958Z,989.33
2018-04-12T10:12:01.791Z,989.35
2018-04-12T10:13:11.620Z,989.31
2018-04-12T10:14:21.728Z,989.32
2018-04-12T10:15:31.827Z,989.28
2018-04-12T10:16:42.006Z,989.28
2018-04-12T10:17:52.139Z,989.28
2018-04-12T10:19:02.244Z,989.27
2018-04-12T10:20:12.326Z,989.21
2018-04-12T10:21:22.429Z,989.23
2018-04-12T10:22:32.524Z,989.29
2018-04-12T10:23:42.379Z,989.29
2018-04-12T10:24:52.483Z,989.3
2018-04-12T10:26:02.578Z,989.26
2018-04-12T10:27:12.695Z,989.25
2018-04-12T10:28:22.788Z,989.16
2018-04-12T10:29:32.891Z,989.27
2018-04-12T10:30:42.723Z,989.25
2018-04-12T10:31:52.807Z,989.19
2018-04-12T10:33:02.930Z,989.14
2018-04-12T10:34:13.562Z,989.22
2018-04-12T10:35:23.658Z,989.19
2018-04-12T10:36:33.759Z,989.14
2018-04-12T10:37:43.333Z,989.15
2018-04-12T10:38:53.459Z,989.14
2018-04-12T10:40:03.868Z,989.11
2018-04-12T10:41:13.711Z,989.16
2018-04-12T10:42:23.818Z,989.13
2018-04-12T10:43:33.928Z,989.1
2018-04-12T10:44:44.031Z,989.1
2018-04-12T10:45:54.211Z,989.14
2018-04-12T10:47:04.336Z,989.09
2018-04-12T10:48:14.450Z,989.11
2018-04-12T10:49:24.529Z,989.1
2018-04-12T10:50:34.634Z,989.11
2018-04-12T10:51:44.738Z,989.16
2018-04-12T10:52:54.652Z,989.05
2018-04-12T10:54:04.758Z,989.12
2018-04-12T10:55:14.859Z,989.15
2018-04-12T10:56:24.956Z,989.14
2018-04-12T10:57:35.112Z,989.14
2018-04-12T10:58:44.955Z,989.2
2018-04-12T10:59:54.794Z,989.15
2018-04-12T11:01:04.652Z,989.16
2018-04-12T11:02:14.785Z,989.13
2018-04-12T11:03:24.937Z,989.07
2018-04-12T11:04:35.245Z,989.08
2018-04-12T11:05:45.078Z,989.06
2018-04-12T11:06:54.918Z,988.97
2018-04-12T11:08:05.046Z,989
2018-04-12T11:09:15.157Z,989.02
2018-04-12T11:10:25.264Z,988.99
2018-04-12T11:11:35.112Z,988.94
2018-04-12T11:12:45.229Z,988.93
2018-04-12T11:13:55.340Z,989.01
2018-04-12T11:15:05.170Z,988.94
2018-04-12T11:16:15.027Z,988.96
2018-04-12T11:17:24.859Z,988.84
2018-04-12T11:18:34.954Z,988.94
2018-04-12T11:19:45.060Z,988.94
2018-04-12T11:20:54.945Z,988.87
2018-04-12T11:22:05.184Z,988.9
2018-04-12T11:23:15.355Z,988.88
2018-04-12T11:24:25.655Z,988.79
2018-04-12T11:25:35.810Z,988.83
2018-04-12T11:26:46.010Z,988.82
2018-04-12T11:27:56.117Z,988.83
2018-04-12T11:29:06.201Z,988.82
2018-04-12T11:30:16.371Z,988.88
2018-04-12T11:31:26.556Z,988.88
2018-04-12T11:32:36.821Z,988.87
2018-04-12T11:33:46.429Z,988.92
2018-04-12T11:34:56.624Z,988.85
2018-04-12T11:36:06.863Z,988.82
2018-04-12T11:37:16.715Z,988.77
2018-04-12T11:38:26.822Z,988.76
2018-04-12T11:39:36.656Z,988.78
2018-04-12T11:40:46.985Z,988.75
2018-04-12T11:41:57.084Z,988.71
2018-04-12T11:43:07.172Z,988.72
2018-04-12T11:44:17.273Z,988.71
2018-04-12T11:45:27.413Z,988.69
2018-04-12T11:46:37.607Z,988.67
2018-04-12T11:47:47.826Z,988.64
2018-04-12T11:48:57.735Z,988.72
2018-04-12T11:50:08.066Z,988.71
2018-04-12T11:51:18.170Z,988.64
2018-04-12T11:52:28.315Z,988.65
2018-04-12T11:53:38.425Z,988.65
2018-04-12T11:54:48.572Z,988.6
2018-04-12T11:55:58.683Z,988.6
2018-04-12T11:57:08.946Z,988.63
2018-04-12T11:58:19.095Z,988.55
2018-04-12T11:59:29.200Z,988.5
2018-04-12T12:00:39.361Z,988.55
2018-04-12T12:01:50.237Z,988.58
2018-04-12T12:03:00.355Z,988.59
2018-04-12T12:04:12.056Z,988.56
2018-04-12T12:05:23.237Z,988.47
2018-04-12T12:06:33.403Z,988.45
2018-04-12T12:07:43.530Z,988.48
2018-04-12T12:08:53.376Z,988.44
2018-04-12T12:10:03.538Z,988.51
2018-04-12T12:11:13.656Z,988.47
2018-04-12T12:12:23.780Z,988.52
2018-04-12T12:13:34.023Z,988.54
2018-04-12T12:14:43.884Z,988.54
2018-04-12T12:15:53.966Z,988.46
2018-04-12T12:17:04.041Z,988.5
2018-04-12T12:18:14.144Z,988.49
2018-04-12T12:19:24.255Z,988.49
2018-04-12T12:20:34.388Z,988.53
2018-04-12T12:21:44.309Z,988.5
2018-04-12T12:22:54.475Z,988.48
2018-04-12T12:24:04.307Z,988.51
2018-04-12T12:25:14.163Z,988.45
2018-04-12T12:26:24.275Z,988.51
2018-04-12T12:27:34.126Z,988.45
2018-04-12T12:28:44.251Z,988.47
2018-04-12T12:29:54.486Z,988.5
2018-04-12T12:31:04.604Z,988.5
2018-04-12T12:32:14.708Z,988.47
2018-04-12T12:33:24.849Z,988.5
2018-04-12T12:34:34.669Z,988.47
2018-04-12T12:35:44.821Z,988.47
2018-04-12T12:36:54.927Z,988.41
2018-04-12T12:38:05.026Z,988.45
2018-04-12T12:39:15.173Z,988.39
2018-04-12T12:40:25.024Z,988.43
2018-04-12T12:41:34.606Z,988.47
2018-04-12T12:42:44.712Z,988.43
2018-04-12T12:43:54.869Z,988.42
2018-04-12T12:45:05.040Z,988.41
2018-04-12T12:46:15.123Z,988.36
2018-04-12T12:47:25.221Z,988.37
2018-04-12T12:48:35.064Z,988.34
2018-04-12T12:49:45.168Z,988.33
2018-04-12T12:50:55.276Z,988.29
2018-04-12T12:52:05.381Z,988.28
2018-04-12T12:53:15.492Z,988.31
2018-04-12T12:54:25.583Z,988.34
2018-04-12T12:55:35.673Z,988.29
2018-04-12T12:56:45.774Z,988.29
2018-04-12T12:57:55.872Z,988.28
2018-04-12T12:59:05.962Z,988.29
2018-04-12T13:00:15.522Z,988.21
2018-04-12T13:01:25.693Z,988.21
2018-04-12T13:02:35.850Z,988.18
2018-04-12T13:03:45.993Z,988.19
2018-04-12T13:04:56.113Z,988.22
2018-04-12T13:06:06.200Z,988.29
2018-04-12T13:07:15.776Z,988.3
2018-04-12T13:08:25.676Z,988.31
2018-04-12T13:09:35.992Z,988.23
2018-04-12T13:10:46.107Z,988.29
2018-04-12T13:11:56.233Z,988.23
2018-04-12T13:13:06.332Z,988.31
2018-04-12T13:14:16.500Z,988.31
2018-04-12T13:15:26.663Z,988.28
2018-04-12T13:16:36.964Z,988.27
2018-04-12T13:17:47.082Z,988.33
2018-04-12T13:18:57.211Z,988.31
2018-04-12T13:20:07.044Z,988.36
2018-04-12T13:21:17.146Z,988.37
2018-04-12T13:22:27.242Z,988.37
2018-04-12T13:23:37.594Z,988.39
2018-04-12T13:24:47.687Z,988.32
2018-04-12T13:25:57.799Z,988.33
2018-04-12T13:27:07.632Z,988.24
2018-04-12T13:28:17.761Z,988.33
2018-04-12T13:29:27.599Z,988.28
2018-04-12T13:30:37.697Z,988.3
2018-04-12T13:31:47.833Z,988.29
2018-04-12T13:32:57.673Z,988.28
2018-04-12T13:34:08.077Z,988.31
2018-04-12T13:35:17.930Z,988.29
2018-04-12T13:36:28.088Z,988.27
2018-04-12T13:37:37.967Z,988.34
2018-04-12T13:38:48.093Z,988.31
2018-04-12T13:39:58.188Z,988.25
2018-04-12T13:41:08.260Z,988.28
2018-04-12T13:42:18.348Z,988.35
2018-04-12T13:43:28.456Z,988.31
2018-04-12T13:44:48.068Z,988.35
2018-04-12T13:45:58.191Z,988.33
2018-04-12T13:47:08.044Z,988.33
2018-04-12T13:48:18.153Z,988.32
2018-04-12T13:49:28.246Z,988.31
2018-04-12T13:50:38.350Z,988.33
2018-04-12T13:51:48.446Z,988.28
2018-04-12T13:52:58.289Z,988.35
2018-04-12T13:54:08.131Z,988.28
2018-04-12T13:55:18.015Z,988.27
2018-04-12T13:56:27.691Z,988.29
2018-04-12T13:57:37.859Z,988.22
2018-04-12T13:58:47.997Z,988.25
2018-04-12T13:59:57.823Z,988.24
2018-04-12T14:01:07.407Z,988.26
2018-04-12T14:02:17.537Z,988.24
2018-04-12T14:03:27.640Z,988.2
2018-04-12T14:04:37.815Z,988.16
2018-04-12T14:05:48.127Z,988.15
2018-04-12T14:06:58.659Z,988.21
2018-04-12T14:08:08.744Z,988.18
2018-04-12T14:09:19.129Z,988.2
2018-04-12T14:10:29.485Z,988.23
2018-04-12T14:11:39.982Z,988.2
2018-04-12T14:12:50.266Z,988.23
2018-04-12T14:14:00.944Z,988.14
2018-04-12T14:15:11.071Z,988.15
2018-04-12T14:16:20.983Z,988.24
2018-04-12T14:17:31.368Z,988.14
2018-04-12T14:18:41.763Z,988.18
2018-04-12T14:19:52.003Z,988.15
2018-04-12T14:21:02.338Z,988.06
2018-04-12T14:22:11.931Z,988.09
2018-04-12T14:23:21.777Z,988.09
2018-04-12T14:24:31.898Z,988.15
2018-04-12T14:25:42.007Z,988.06
2018-04-12T14:26:51.585Z,988.1
2018-04-12T14:28:01.704Z,988.1
2018-04-12T14:29:11.800Z,988.1
2018-04-12T14:30:21.908Z,988.09
2018-04-12T14:31:31.485Z,988.09
2018-04-12T14:32:41.327Z,988.12
2018-04-12T14:33:51.414Z,988.15
2018-04-12T14:35:01.510Z,988.16
2018-04-12T14:36:11.672Z,988.16
2018-04-12T14:37:22.263Z,988.13
2018-04-12T14:38:32.396Z,988.1
2018-04-12T14:39:42.532Z,988.14
2018-04-12T14:40:52.699Z,988.1
2018-04-12T14:42:02.790Z,988.07
2018-04-12T14:43:12.877Z,988.06
2018-04-12T14:44:22.465Z,988.06
2018-04-12T14:45:32.599Z,988.12
2018-04-12T14:46:42.786Z,988.1
2018-04-12T14:47:52.714Z,988.07
2018-04-12T14:49:02.834Z,988.01
2018-04-12T14:50:12.958Z,988.05
2018-04-12T14:51:23.065Z,988.07
2018-04-12T14:52:32.928Z,988.02
2018-04-12T14:53:42.770Z,987.94
2018-04-12T14:54:52.672Z,988.15
2018-04-12T14:56:02.507Z,987.99
2018-04-12T14:57:12.648Z,988.07
2018-04-12T14:58:22.856Z,988.08
2018-04-12T14:59:33.023Z,988.03
2018-04-12T15:00:43.133Z,988.02
2018-04-12T15:01:53.319Z,988.02
2018-04-12T15:03:03.448Z,988.05
2018-04-12T15:04:13.557Z,988.03
2018-04-12T15:05:23.418Z,988.06
2018-04-12T15:06:33.269Z,988.04
2018-04-12T15:07:43.408Z,987.99